Decoded Metar for KFFC (PEACHTREE CITY in GA, USA) (IATA:FFC) | Meteo·Mobile Aviation Weather
aviador You're here:

KFFC Decoded Metar

PEACHTREE CITY in GA, USA
Report Time2019-07-16 21:53:00
UTC Time2019-07-16 22:19:08
Flight Rules vfr VFR
WindVRB at 04 kt
Visibility9999 m
Phenomena:N/A
Clouds:N/A
Expected CloudBase > 5,200 ft AGL from Temp-Dew spread
CeilingNone
Temp34°C (ISA +21)
Dew Point21°C (47% RH)
Heat Index37.4°C
QNH1019 hPa
Density Alt3,340 ft
Elevation860 ft
Report Wrong Elevation
Raw Report
METAR KFFC 162153Z AUTO VRB04KT 10SM CLR 34/21 A3010 RMK AO2 SLP185
T03390206=

Extra information for KFFC:More info

Metar Taf Metar & Taf Last 4 Metars F.Rules Stats Wind Profile Meteogram Temp Stats Airport Information Weather charts Add Link Nearby VenuesMetar ALERT Operation Metar Decoded Social comments

AIRNAV info for KFFC